sensor_id;sensor_type;location;lat;lon;timestamp;temperature;humidity
13123;DHT22;6627;50.920;12.050;2023-11-21T00:00:36;7.60;99.90
13123;DHT22;6627;50.920;12.050;2023-11-21T00:03:03;7.60;99.90
13123;DHT22;6627;50.920;12.050;2023-11-21T00:05:30;7.60;99.90
13123;DHT22;6627;50.920;12.050;2023-11-21T00:07:58;7.50;99.90
13123;DHT22;6627;50.920;12.050;2023-11-21T00:10:25;7.50;99.90
13123;DHT22;6627;50.920;12.050;2023-11-21T00:12:54;7.50;99.90
13123;DHT22;6627;50.920;12.050;2023-11-21T00:15:23;7.40;99.90
13123;DHT22;6627;50.920;12.050;2023-11-21T00:17:50;7.50;99.90
13123;DHT22;6627;50.920;12.050;2023-11-21T00:20:18;7.40;99.90
13123;DHT22;6627;50.920;12.050;2023-11-21T00:22:46;7.50;99.90
13123;DHT22;6627;50.920;12.050;2023-11-21T00:25:13;7.50;99.90
13123;DHT22;6627;50.920;12.050;2023-11-21T00:27:43;7.50;99.90
13123;DHT22;6627;50.920;12.050;2023-11-21T00:30:11;7.60;99.90
13123;DHT22;6627;50.920;12.050;2023-11-21T00:33:00;7.60;99.90
13123;DHT22;6627;50.920;12.050;2023-11-21T00:35:27;7.50;99.90
13123;DHT22;6627;50.920;12.050;2023-11-21T00:37:54;7.60;99.90
13123;DHT22;6627;50.920;12.050;2023-11-21T00:40:22;7.60;99.90
13123;DHT22;6627;50.920;12.050;2023-11-21T00:42:50;7.60;99.90
13123;DHT22;6627;50.920;12.050;2023-11-21T00:45:17;7.60;99.90
13123;DHT22;6627;50.920;12.050;2023-11-21T00:47:45;7.70;99.90
13123;DHT22;6627;50.920;12.050;2023-11-21T00:50:13;7.60;99.90
13123;DHT22;6627;50.920;12.050;2023-11-21T00:52:41;7.70;99.90
13123;DHT22;6627;50.920;12.050;2023-11-21T00:55:09;7.60;99.90
13123;DHT22;6627;50.920;12.050;2023-11-21T00:57:36;7.50;99.90
13123;DHT22;6627;50.920;12.050;2023-11-21T01:00:05;7.50;99.90
13123;DHT22;6627;50.920;12.050;2023-11-21T01:02:35;7.50;99.90
13123;DHT22;6627;50.920;12.050;2023-11-21T01:05:02;7.50;99.90
13123;DHT22;6627;50.920;12.050;2023-11-21T01:07:32;7.60;99.90
13123;DHT22;6627;50.920;12.050;2023-11-21T01:09:59;7.60;99.90
13123;DHT22;6627;50.920;12.050;2023-11-21T01:12:26;7.70;99.90
13123;DHT22;6627;50.920;12.050;2023-11-21T01:14:54;7.70;99.90
13123;DHT22;6627;50.920;12.050;2023-11-21T01:17:21;7.60;99.90
13123;DHT22;6627;50.920;12.050;2023-11-21T01:19:49;7.50;99.90
13123;DHT22;6627;50.920;12.050;2023-11-21T01:22:17;7.50;99.90
13123;DHT22;6627;50.920;12.050;2023-11-21T01:24:49;7.50;99.90
13123;DHT22;6627;50.920;12.050;2023-11-21T01:27:16;7.50;99.90
13123;DHT22;6627;50.920;12.050;2023-11-21T01:29:44;7.50;99.90
13123;DHT22;6627;50.920;12.050;2023-11-21T01:32:12;7.50;99.90
13123;DHT22;6627;50.920;12.050;2023-11-21T01:34:39;7.50;99.90
13123;DHT22;6627;50.920;12.050;2023-11-21T01:37:07;7.60;99.90
13123;DHT22;6627;50.920;12.050;2023-11-21T01:39:34;7.50;99.90
13123;DHT22;6627;50.920;12.050;2023-11-21T01:42:07;7.50;99.90
13123;DHT22;6627;50.920;12.050;2023-11-21T01:44:34;7.60;99.90
13123;DHT22;6627;50.920;12.050;2023-11-21T01:47:02;7.60;99.90
13123;DHT22;6627;50.920;12.050;2023-11-21T01:49:31;7.60;99.90
13123;DHT22;6627;50.920;12.050;2023-11-21T01:51:59;7.50;99.90
13123;DHT22;6627;50.920;12.050;2023-11-21T01:54:28;7.50;99.90
13123;DHT22;6627;50.920;12.050;2023-11-21T01:56:57;7.60;99.90
13123;DHT22;6627;50.920;12.050;2023-11-21T01:59:34;7.60;99.90
13123;DHT22;6627;50.920;12.050;2023-11-21T02:02:02;7.70;99.90
13123;DHT22;6627;50.920;12.050;2023-11-21T02:04:31;7.60;99.90
13123;DHT22;6627;50.920;12.050;2023-11-21T02:06:59;7.50;99.90
13123;DHT22;6627;50.920;12.050;2023-11-21T02:09:27;7.60;99.90
13123;DHT22;6627;50.920;12.050;2023-11-21T02:11:56;7.50;99.90
13123;DHT22;6627;50.920;12.050;2023-11-21T02:14:25;7.50;99.90
13123;DHT22;6627;50.920;12.050;2023-11-21T02:17:05;7.60;99.90
13123;DHT22;6627;50.920;12.050;2023-11-21T02:19:32;7.60;99.90
13123;DHT22;6627;50.920;12.050;2023-11-21T02:22:00;7.50;99.90
13123;DHT22;6627;50.920;12.050;2023-11-21T02:24:33;7.50;99.90
13123;DHT22;6627;50.920;12.050;2023-11-21T02:27:00;7.50;99.90
13123;DHT22;6627;50.920;12.050;2023-11-21T02:29:27;7.50;99.90
13123;DHT22;6627;50.920;12.050;2023-11-21T02:31:55;7.50;99.90
13123;DHT22;6627;50.920;12.050;2023-11-21T02:34:23;7.60;99.90
13123;DHT22;6627;50.920;12.050;2023-11-21T02:36:51;7.50;99.90
13123;DHT22;6627;50.920;12.050;2023-11-21T02:39:19;7.60;99.90
13123;DHT22;6627;50.920;12.050;2023-11-21T02:41:49;7.50;99.90
13123;DHT22;6627;50.920;12.050;2023-11-21T02:44:17;7.50;99.90
13123;DHT22;6627;50.920;12.050;2023-11-21T02:46:44;7.50;99.90
13123;DHT22;6627;50.920;12.050;2023-11-21T02:49:12;7.50;99.90
13123;DHT22;6627;50.920;12.050;2023-11-21T02:51:40;7.40;99.90
13123;DHT22;6627;50.920;12.050;2023-11-21T02:54:08;7.40;99.90
13123;DHT22;6627;50.920;12.050;2023-11-21T02:56:35;7.40;99.90
13123;DHT22;6627;50.920;12.050;2023-11-21T02:59:04;7.90;99.90
13123;DHT22;6627;50.920;12.050;2023-11-21T03:01:31;7.40;99.90
13123;DHT22;6627;50.920;12.050;2023-11-21T03:03:58;7.40;99.90
13123;DHT22;6627;50.920;12.050;2023-11-21T03:06:26;7.40;99.90
13123;DHT22;6627;50.920;12.050;2023-11-21T03:08:53;7.40;99.90
13123;DHT22;6627;50.920;12.050;2023-11-21T03:11:20;7.40;99.90
13123;DHT22;6627;50.920;12.050;2023-11-21T03:13:47;7.50;99.90
13123;DHT22;6627;50.920;12.050;2023-11-21T03:16:17;7.50;99.90
13123;DHT22;6627;50.920;12.050;2023-11-21T03:18:45;7.60;99.90
13123;DHT22;6627;50.920;12.050;2023-11-21T03:21:12;7.50;99.90
13123;DHT22;6627;50.920;12.050;2023-11-21T03:23:39;7.50;99.90
13123;DHT22;6627;50.920;12.050;2023-11-21T03:26:06;7.60;99.90
13123;DHT22;6627;50.920;12.050;2023-11-21T03:28:38;7.60;99.90
13123;DHT22;6627;50.920;12.050;2023-11-21T03:31:06;7.50;99.90
13123;DHT22;6627;50.920;12.050;2023-11-21T03:33:36;7.50;99.90
13123;DHT22;6627;50.920;12.050;2023-11-21T03:36:03;7.50;99.90
13123;DHT22;6627;50.920;12.050;2023-11-21T03:38:32;7.40;99.90
13123;DHT22;6627;50.920;12.050;2023-11-21T03:40:59;7.40;99.90
13123;DHT22;6627;50.920;12.050;2023-11-21T03:43:27;7.40;99.90
13123;DHT22;6627;50.920;12.050;2023-11-21T03:45:54;7.40;99.90
13123;DHT22;6627;50.920;12.050;2023-11-21T03:48:21;7.40;99.90
13123;DHT22;6627;50.920;12.050;2023-11-21T03:50:50;7.30;99.90
13123;DHT22;6627;50.920;12.050;2023-11-21T03:53:17;7.40;99.90
13123;DHT22;6627;50.920;12.050;2023-11-21T03:55:44;7.30;99.90
13123;DHT22;6627;50.920;12.050;2023-11-21T03:58:12;7.30;99.90
13123;DHT22;6627;50.920;12.050;2023-11-21T04:00:39;7.30;99.90
13123;DHT22;6627;50.920;12.050;2023-11-21T04:03:07;7.40;99.90
13123;DHT22;6627;50.920;12.050;2023-11-21T04:05:34;7.40;99.90
13123;DHT22;6627;50.920;12.050;2023-11-21T04:08:03;7.40;99.90
13123;DHT22;6627;50.920;12.050;2023-11-21T04:10:31;7.40;99.90
13123;DHT22;6627;50.920;12.050;2023-11-21T04:12:59;7.30;99.90
13123;DHT22;6627;50.920;12.050;2023-11-21T04:15:26;7.30;99.90
13123;DHT22;6627;50.920;12.050;2023-11-21T04:17:53;7.30;99.90
13123;DHT22;6627;50.920;12.050;2023-11-21T04:20:22;7.20;99.90
13123;DHT22;6627;50.920;12.050;2023-11-21T04:22:49;7.20;99.90
13123;DHT22;6627;50.920;12.050;2023-11-21T04:25:18;7.20;99.90
13123;DHT22;6627;50.920;12.050;2023-11-21T04:27:46;7.20;99.90
13123;DHT22;6627;50.920;12.050;2023-11-21T04:30:14;7.20;99.90
13123;DHT22;6627;50.920;12.050;2023-11-21T04:32:41;7.20;99.90
13123;DHT22;6627;50.920;12.050;2023-11-21T04:35:09;7.20;99.90
13123;DHT22;6627;50.920;12.050;2023-11-21T04:37:37;7.10;99.90
13123;DHT22;6627;50.920;12.050;2023-11-21T04:40:05;7.10;99.90
13123;DHT22;6627;50.920;12.050;2023-11-21T04:42:39;7.10;99.90
13123;DHT22;6627;50.920;12.050;2023-11-21T04:45:08;7.10;99.90
13123;DHT22;6627;50.920;12.050;2023-11-21T04:47:37;7.00;99.90
13123;DHT22;6627;50.920;12.050;2023-11-21T04:50:05;6.90;99.90
13123;DHT22;6627;50.920;12.050;2023-11-21T04:52:33;6.80;99.90
13123;DHT22;6627;50.920;12.050;2023-11-21T04:55:00;6.70;99.90
13123;DHT22;6627;50.920;12.050;2023-11-21T04:57:29;6.60;99.90
13123;DHT22;6627;50.920;12.050;2023-11-21T04:59:58;6.50;99.90
13123;DHT22;6627;50.920;12.050;2023-11-21T05:02:26;6.40;99.90
13123;DHT22;6627;50.920;12.050;2023-11-21T05:04:54;6.30;99.90
13123;DHT22;6627;50.920;12.050;2023-11-21T05:07:22;6.30;99.90
13123;DHT22;6627;50.920;12.050;2023-11-21T05:09:49;6.20;99.90
13123;DHT22;6627;50.920;12.050;2023-11-21T05:12:17;6.10;99.90
13123;DHT22;6627;50.920;12.050;2023-11-21T05:14:44;6.00;99.90
13123;DHT22;6627;50.920;12.050;2023-11-21T05:17:13;5.90;99.90
13123;DHT22;6627;50.920;12.050;2023-11-21T05:19:41;5.80;99.90
13123;DHT22;6627;50.920;12.050;2023-11-21T05:22:08;5.80;99.90
13123;DHT22;6627;50.920;12.050;2023-11-21T05:24:38;5.70;99.90
13123;DHT22;6627;50.920;12.050;2023-11-21T05:27:05;5.80;99.90
13123;DHT22;6627;50.920;12.050;2023-11-21T05:29:35;5.60;99.90
13123;DHT22;6627;50.920;12.050;2023-11-21T05:32:03;5.60;99.90
13123;DHT22;6627;50.920;12.050;2023-11-21T05:34:32;5.60;99.90
13123;DHT22;6627;50.920;12.050;2023-11-21T05:36:59;5.50;99.90
13123;DHT22;6627;50.920;12.050;2023-11-21T05:39:26;5.40;99.90
13123;DHT22;6627;50.920;12.050;2023-11-21T05:41:54;5.40;99.90
13123;DHT22;6627;50.920;12.050;2023-11-21T05:44:21;5.30;99.90
13123;DHT22;6627;50.920;12.050;2023-11-21T05:46:49;5.30;99.90
13123;DHT22;6627;50.920;12.050;2023-11-21T05:49:17;5.20;99.90
13123;DHT22;6627;50.920;12.050;2023-11-21T05:51:48;5.20;99.90
13123;DHT22;6627;50.920;12.050;2023-11-21T05:54:16;5.10;99.90
13123;DHT22;6627;50.920;12.050;2023-11-21T05:56:43;5.10;99.90
13123;DHT22;6627;50.920;12.050;2023-11-21T05:59:10;5.10;99.90
13123;DHT22;6627;50.920;12.050;2023-11-21T06:01:38;5.00;99.90
13123;DHT22;6627;50.920;12.050;2023-11-21T06:04:05;5.00;99.90
13123;DHT22;6627;50.920;12.050;2023-11-21T06:06:36;4.90;99.90
13123;DHT22;6627;50.920;12.050;2023-11-21T06:09:21;4.90;99.90
13123;DHT22;6627;50.920;12.050;2023-11-21T06:11:50;4.90;99.90
13123;DHT22;6627;50.920;12.050;2023-11-21T06:14:18;4.90;99.90
13123;DHT22;6627;50.920;12.050;2023-11-21T06:16:48;4.80;99.90
13123;DHT22;6627;50.920;12.050;2023-11-21T06:19:17;4.80;99.90
13123;DHT22;6627;50.920;12.050;2023-11-21T06:21:45;4.80;99.90
13123;DHT22;6627;50.920;12.050;2023-11-21T06:24:13;4.70;99.90
13123;DHT22;6627;50.920;12.050;2023-11-21T06:26:42;4.70;99.90
13123;DHT22;6627;50.920;12.050;2023-11-21T06:29:12;4.60;99.90
13123;DHT22;6627;50.920;12.050;2023-11-21T06:31:39;4.60;99.90
13123;DHT22;6627;50.920;12.050;2023-11-21T06:34:07;4.60;99.90
13123;DHT22;6627;50.920;12.050;2023-11-21T06:36:36;4.60;99.90
13123;DHT22;6627;50.920;12.050;2023-11-21T06:39:08;4.60;99.90
13123;DHT22;6627;50.920;12.050;2023-11-21T06:41:36;4.60;99.90
13123;DHT22;6627;50.920;12.050;2023-11-21T06:44:07;4.60;99.90
13123;DHT22;6627;50.920;12.050;2023-11-21T06:46:34;4.50;99.90
13123;DHT22;6627;50.920;12.050;2023-11-21T06:49:02;4.60;99.90
13123;DHT22;6627;50.920;12.050;2023-11-21T06:51:30;4.60;99.90
13123;DHT22;6627;50.920;12.050;2023-11-21T06:53:58;4.60;99.90
13123;DHT22;6627;50.920;12.050;2023-11-21T06:56:25;4.70;99.90
13123;DHT22;6627;50.920;12.050;2023-11-21T06:58:52;4.90;99.90
13123;DHT22;6627;50.920;12.050;2023-11-21T07:01:21;4.90;99.90
13123;DHT22;6627;50.920;12.050;2023-11-21T07:03:48;5.10;99.90
13123;DHT22;6627;50.920;12.050;2023-11-21T07:06:15;5.10;99.90
13123;DHT22;6627;50.920;12.050;2023-11-21T07:08:43;5.20;99.90
13123;DHT22;6627;50.920;12.050;2023-11-21T07:11:10;5.20;99.90
13123;DHT22;6627;50.920;12.050;2023-11-21T07:13:38;5.30;99.90
13123;DHT22;6627;50.920;12.050;2023-11-21T07:16:05;5.40;99.90
13123;DHT22;6627;50.920;12.050;2023-11-21T07:18:34;5.50;99.90
13123;DHT22;6627;50.920;12.050;2023-11-21T07:21:01;5.60;99.90
13123;DHT22;6627;50.920;12.050;2023-11-21T07:23:29;5.60;99.90
13123;DHT22;6627;50.920;12.050;2023-11-21T07:25:56;5.70;99.90
13123;DHT22;6627;50.920;12.050;2023-11-21T07:28:24;5.70;99.90
13123;DHT22;6627;50.920;12.050;2023-11-21T07:30:51;5.80;99.90
13123;DHT22;6627;50.920;12.050;2023-11-21T07:33:19;5.80;99.90
13123;DHT22;6627;50.920;12.050;2023-11-21T07:35:48;5.80;99.90
13123;DHT22;6627;50.920;12.050;2023-11-21T07:38:15;5.80;99.90
13123;DHT22;6627;50.920;12.050;2023-11-21T07:40:43;5.90;99.90
13123;DHT22;6627;50.920;12.050;2023-11-21T07:43:10;6.00;99.90
13123;DHT22;6627;50.920;12.050;2023-11-21T07:45:37;6.00;99.90
13123;DHT22;6627;50.920;12.050;2023-11-21T07:48:05;6.10;99.90
13123;DHT22;6627;50.920;12.050;2023-11-21T07:50:33;6.10;99.90
13123;DHT22;6627;50.920;12.050;2023-11-21T07:53:01;6.10;99.90
13123;DHT22;6627;50.920;12.050;2023-11-21T07:55:31;6.10;99.90
13123;DHT22;6627;50.920;12.050;2023-11-21T07:57:59;6.10;99.90
13123;DHT22;6627;50.920;12.050;2023-11-21T08:00:26;6.10;99.90
13123;DHT22;6627;50.920;12.050;2023-11-21T08:02:56;6.10;99.90
13123;DHT22;6627;50.920;12.050;2023-11-21T08:05:23;6.20;99.90
13123;DHT22;6627;50.920;12.050;2023-11-21T08:07:52;6.20;99.90
13123;DHT22;6627;50.920;12.050;2023-11-21T08:10:21;6.20;99.90
13123;DHT22;6627;50.920;12.050;2023-11-21T08:12:48;6.30;99.90
13123;DHT22;6627;50.920;12.050;2023-11-21T08:15:17;6.20;99.90
13123;DHT22;6627;50.920;12.050;2023-11-21T08:17:51;6.30;99.90
13123;DHT22;6627;50.920;12.050;2023-11-21T08:20:19;6.30;99.90
13123;DHT22;6627;50.920;12.050;2023-11-21T08:22:49;6.40;99.90
13123;DHT22;6627;50.920;12.050;2023-11-21T08:25:20;6.40;99.90
13123;DHT22;6627;50.920;12.050;2023-11-21T08:27:48;6.40;99.90
13123;DHT22;6627;50.920;12.050;2023-11-21T08:30:16;6.40;99.90
13123;DHT22;6627;50.920;12.050;2023-11-21T08:32:45;6.50;99.90
13123;DHT22;6627;50.920;12.050;2023-11-21T08:35:13;6.50;99.90
13123;DHT22;6627;50.920;12.050;2023-11-21T08:37:42;6.50;99.90
13123;DHT22;6627;50.920;12.050;2023-11-21T08:40:11;6.60;99.90
13123;DHT22;6627;50.920;12.050;2023-11-21T08:42:45;6.70;99.90
13123;DHT22;6627;50.920;12.050;2023-11-21T08:45:13;6.70;99.90
13123;DHT22;6627;50.920;12.050;2023-11-21T08:47:41;6.70;99.90
13123;DHT22;6627;50.920;12.050;2023-11-21T08:50:10;6.70;99.90
13123;DHT22;6627;50.920;12.050;2023-11-21T08:52:38;6.80;99.90
13123;DHT22;6627;50.920;12.050;2023-11-21T08:55:07;6.90;99.90
13123;DHT22;6627;50.920;12.050;2023-11-21T08:57:35;6.90;99.90
13123;DHT22;6627;50.920;12.050;2023-11-21T09:00:04;7.00;99.90
13123;DHT22;6627;50.920;12.050;2023-11-21T09:02:36;7.00;99.90
13123;DHT22;6627;50.920;12.050;2023-11-21T09:05:04;7.00;99.90
13123;DHT22;6627;50.920;12.050;2023-11-21T09:07:32;7.00;99.90
13123;DHT22;6627;50.920;12.050;2023-11-21T09:09:59;7.00;99.90
13123;DHT22;6627;50.920;12.050;2023-11-21T09:12:27;7.10;99.90
13123;DHT22;6627;50.920;12.050;2023-11-21T09:15:16;7.10;99.90
13123;DHT22;6627;50.920;12.050;2023-11-21T09:17:43;7.20;99.90
13123;DHT22;6627;50.920;12.050;2023-11-21T09:20:12;7.20;99.90
13123;DHT22;6627;50.920;12.050;2023-11-21T09:22:41;7.30;99.90
13123;DHT22;6627;50.920;12.050;2023-11-21T09:25:10;7.30;99.90
13123;DHT22;6627;50.920;12.050;2023-11-21T09:27:38;7.40;99.90
13123;DHT22;6627;50.920;12.050;2023-11-21T09:30:07;7.40;99.90
13123;DHT22;6627;50.920;12.050;2023-11-21T09:32:39;7.40;99.90
13123;DHT22;6627;50.920;12.050;2023-11-21T09:35:07;7.50;99.90
13123;DHT22;6627;50.920;12.050;2023-11-21T09:37:35;7.60;99.90
13123;DHT22;6627;50.920;12.050;2023-11-21T09:40:05;7.60;99.90
13123;DHT22;6627;50.920;12.050;2023-11-21T09:42:49;7.60;99.90
13123;DHT22;6627;50.920;12.050;2023-11-21T09:45:40;7.60;99.90
13123;DHT22;6627;50.920;12.050;2023-11-21T09:48:15;7.60;99.90
13123;DHT22;6627;50.920;12.050;2023-11-21T09:50:44;7.70;99.90
13123;DHT22;6627;50.920;12.050;2023-11-21T09:53:18;7.70;99.90
13123;DHT22;6627;50.920;12.050;2023-11-21T09:55:53;7.70;99.90
13123;DHT22;6627;50.920;12.050;2023-11-21T09:58:24;7.70;99.90
13123;DHT22;6627;50.920;12.050;2023-11-21T10:00:59;7.80;99.90
13123;DHT22;6627;50.920;12.050;2023-11-21T10:03:32;7.80;99.90
13123;DHT22;6627;50.920;12.050;2023-11-21T10:06:03;7.80;99.90
13123;DHT22;6627;50.920;12.050;2023-11-21T10:08:32;7.80;99.90
13123;DHT22;6627;50.920;12.050;2023-11-21T10:11:02;7.80;99.90
13123;DHT22;6627;50.920;12.050;2023-11-21T10:13:34;7.90;99.90
13123;DHT22;6627;50.920;12.050;2023-11-21T10:16:06;7.90;99.90
13123;DHT22;6627;50.920;12.050;2023-11-21T10:18:58;7.90;99.90
13123;DHT22;6627;50.920;12.050;2023-11-21T10:21:28;7.90;99.90
13123;DHT22;6627;50.920;12.050;2023-11-21T10:23:55;7.90;99.90
13123;DHT22;6627;50.920;12.050;2023-11-21T10:26:23;7.90;99.90
13123;DHT22;6627;50.920;12.050;2023-11-21T10:28:57;7.90;99.90
13123;DHT22;6627;50.920;12.050;2023-11-21T10:31:26;7.90;99.90
13123;DHT22;6627;50.920;12.050;2023-11-21T10:33:53;7.80;99.90
13123;DHT22;6627;50.920;12.050;2023-11-21T10:36:28;7.80;99.90
13123;DHT22;6627;50.920;12.050;2023-11-21T10:38:57;7.80;99.90
13123;DHT22;6627;50.920;12.050;2023-11-21T10:41:25;7.80;99.90
13123;DHT22;6627;50.920;12.050;2023-11-21T10:43:53;7.80;99.90
13123;DHT22;6627;50.920;12.050;2023-11-21T10:46:22;7.80;99.90
13123;DHT22;6627;50.920;12.050;2023-11-21T10:48:54;7.80;99.90
13123;DHT22;6627;50.920;12.050;2023-11-21T10:51:22;7.80;99.90
13123;DHT22;6627;50.920;12.050;2023-11-21T10:53:52;7.80;99.90
13123;DHT22;6627;50.920;12.050;2023-11-21T10:56:23;7.80;99.90
13123;DHT22;6627;50.920;12.050;2023-11-21T10:58:52;7.80;99.90
13123;DHT22;6627;50.920;12.050;2023-11-21T11:01:21;7.90;99.90
13123;DHT22;6627;50.920;12.050;2023-11-21T11:03:54;7.80;99.90
13123;DHT22;6627;50.920;12.050;2023-11-21T11:06:39;7.80;99.90
13123;DHT22;6627;50.920;12.050;2023-11-21T11:09:11;7.80;99.90
13123;DHT22;6627;50.920;12.050;2023-11-21T11:11:40;7.90;99.90
13123;DHT22;6627;50.920;12.050;2023-11-21T11:14:14;7.90;99.90
13123;DHT22;6627;50.920;12.050;2023-11-21T11:17:02;7.80;99.90
13123;DHT22;6627;50.920;12.050;2023-11-21T11:19:31;7.80;99.90
13123;DHT22;6627;50.920;12.050;2023-11-21T11:22:08;7.90;99.90
13123;DHT22;6627;50.920;12.050;2023-11-21T11:28:29;7.90;99.90
13123;DHT22;6627;50.920;12.050;2023-11-21T11:31:21;7.80;99.90
13123;DHT22;6627;50.920;12.050;2023-11-21T11:34:00;7.90;99.90
13123;DHT22;6627;50.920;12.050;2023-11-21T11:36:47;7.90;99.90
13123;DHT22;6627;50.920;12.050;2023-11-21T11:39:28;7.90;99.90
13123;DHT22;6627;50.920;12.050;2023-11-21T11:41:59;7.90;99.90
13123;DHT22;6627;50.920;12.050;2023-11-21T11:44:51;7.90;99.90
13123;DHT22;6627;50.920;12.050;2023-11-21T11:47:24;7.90;99.90
13123;DHT22;6627;50.920;12.050;2023-11-21T11:50:02;7.90;99.90
13123;DHT22;6627;50.920;12.050;2023-11-21T11:52:34;7.80;99.90
13123;DHT22;6627;50.920;12.050;2023-11-21T11:57:35;7.80;99.90
13123;DHT22;6627;50.920;12.050;2023-11-21T12:00:10;7.80;99.90
13123;DHT22;6627;50.920;12.050;2023-11-21T12:02:51;7.90;99.90
13123;DHT22;6627;50.920;12.050;2023-11-21T12:05:21;7.90;99.90
13123;DHT22;6627;50.920;12.050;2023-11-21T12:07:50;7.80;99.90
13123;DHT22;6627;50.920;12.050;2023-11-21T12:10:20;7.90;99.90
13123;DHT22;6627;50.920;12.050;2023-11-21T12:12:54;7.90;99.90
13123;DHT22;6627;50.920;12.050;2023-11-21T12:17:52;7.80;99.90
13123;DHT22;6627;50.920;12.050;2023-11-21T12:20:20;7.70;99.90
13123;DHT22;6627;50.920;12.050;2023-11-21T12:22:51;7.60;99.90
13123;DHT22;6627;50.920;12.050;2023-11-21T12:25:21;7.60;99.90
13123;DHT22;6627;50.920;12.050;2023-11-21T12:27:52;7.60;99.90
13123;DHT22;6627;50.920;12.050;2023-11-21T12:30:21;7.60;99.90
13123;DHT22;6627;50.920;12.050;2023-11-21T12:33:00;7.50;99.90
13123;DHT22;6627;50.920;12.050;2023-11-21T12:35:31;7.50;99.90
13123;DHT22;6627;50.920;12.050;2023-11-21T12:38:01;7.50;99.90
13123;DHT22;6627;50.920;12.050;2023-11-21T12:40:29;7.50;99.90
13123;DHT22;6627;50.920;12.050;2023-11-21T12:42:59;7.50;99.90
13123;DHT22;6627;50.920;12.050;2023-11-21T12:45:30;7.40;99.90
13123;DHT22;6627;50.920;12.050;2023-11-21T12:48:00;7.50;99.90
13123;DHT22;6627;50.920;12.050;2023-11-21T12:50:33;7.40;99.90
13123;DHT22;6627;50.920;12.050;2023-11-21T12:53:04;7.40;99.90
13123;DHT22;6627;50.920;12.050;2023-11-21T12:55:35;7.30;99.90
13123;DHT22;6627;50.920;12.050;2023-11-21T12:58:05;7.30;99.90
13123;DHT22;6627;50.920;12.050;2023-11-21T13:03:06;7.20;99.90
13123;DHT22;6627;50.920;12.050;2023-11-21T13:05:37;7.20;99.90
13123;DHT22;6627;50.920;12.050;2023-11-21T13:08:07;7.20;99.90
13123;DHT22;6627;50.920;12.050;2023-11-21T13:10:39;7.10;99.90
13123;DHT22;6627;50.920;12.050;2023-11-21T13:13:12;7.10;99.90
13123;DHT22;6627;50.920;12.050;2023-11-21T13:15:48;7.00;99.90
13123;DHT22;6627;50.920;12.050;2023-11-21T13:18:16;7.00;99.90
13123;DHT22;6627;50.920;12.050;2023-11-21T13:20:44;6.90;99.90
13123;DHT22;6627;50.920;12.050;2023-11-21T13:23:12;6.90;99.90
13123;DHT22;6627;50.920;12.050;2023-11-21T13:25:42;7.00;99.90
13123;DHT22;6627;50.920;12.050;2023-11-21T13:28:12;6.90;99.90
13123;DHT22;6627;50.920;12.050;2023-11-21T13:30:41;6.90;99.90
13123;DHT22;6627;50.920;12.050;2023-11-21T13:33:10;6.80;99.90
13123;DHT22;6627;50.920;12.050;2023-11-21T13:35:44;6.80;99.90
13123;DHT22;6627;50.920;12.050;2023-11-21T13:38:15;6.80;99.90
13123;DHT22;6627;50.920;12.050;2023-11-21T13:40:47;6.70;99.90
13123;DHT22;6627;50.920;12.050;2023-11-21T13:45:53;6.70;99.90
13123;DHT22;6627;50.920;12.050;2023-11-21T13:48:26;6.70;99.90
13123;DHT22;6627;50.920;12.050;2023-11-21T13:51:01;6.70;99.90
13123;DHT22;6627;50.920;12.050;2023-11-21T13:53:36;6.70;99.90
13123;DHT22;6627;50.920;12.050;2023-11-21T13:56:05;6.70;99.90
13123;DHT22;6627;50.920;12.050;2023-11-21T13:58:34;6.70;99.90
13123;DHT22;6627;50.920;12.050;2023-11-21T14:01:10;6.60;99.90
13123;DHT22;6627;50.920;12.050;2023-11-21T14:06:28;6.60;99.90
13123;DHT22;6627;50.920;12.050;2023-11-21T14:09:00;6.60;99.90
13123;DHT22;6627;50.920;12.050;2023-11-21T14:11:31;6.50;99.90
13123;DHT22;6627;50.920;12.050;2023-11-21T14:14:01;6.40;99.90
13123;DHT22;6627;50.920;12.050;2023-11-21T14:16:28;6.40;99.90
13123;DHT22;6627;50.920;12.050;2023-11-21T14:18:56;6.30;99.90
13123;DHT22;6627;50.920;12.050;2023-11-21T14:21:49;6.00;99.90
13123;DHT22;6627;50.920;12.050;2023-11-21T14:24:16;6.00;99.90
13123;DHT22;6627;50.920;12.050;2023-11-21T14:26:45;6.00;99.90
13123;DHT22;6627;50.920;12.050;2023-11-21T14:29:15;6.00;99.90
13123;DHT22;6627;50.920;12.050;2023-11-21T14:31:45;5.80;99.90
13123;DHT22;6627;50.920;12.050;2023-11-21T14:34:13;5.80;99.90
13123;DHT22;6627;50.920;12.050;2023-11-21T14:36:41;5.80;99.90
13123;DHT22;6627;50.920;12.050;2023-11-21T14:39:09;5.80;99.90
13123;DHT22;6627;50.920;12.050;2023-11-21T14:41:47;5.80;99.90
13123;DHT22;6627;50.920;12.050;2023-11-21T14:44:16;5.70;99.90
13123;DHT22;6627;50.920;12.050;2023-11-21T14:46:43;5.70;99.90
13123;DHT22;6627;50.920;12.050;2023-11-21T14:49:12;5.60;99.90
13123;DHT22;6627;50.920;12.050;2023-11-21T14:51:47;5.60;99.90
13123;DHT22;6627;50.920;12.050;2023-11-21T14:54:27;5.50;99.90
13123;DHT22;6627;50.920;12.050;2023-11-21T14:57:07;5.40;99.90
13123;DHT22;6627;50.920;12.050;2023-11-21T14:59:43;5.40;99.90
13123;DHT22;6627;50.920;12.050;2023-11-21T15:02:15;5.30;99.90
13123;DHT22;6627;50.920;12.050;2023-11-21T15:04:46;5.30;99.90
13123;DHT22;6627;50.920;12.050;2023-11-21T15:07:15;5.30;99.90
13123;DHT22;6627;50.920;12.050;2023-11-21T15:09:41;5.30;99.90
13123;DHT22;6627;50.920;12.050;2023-11-21T15:12:12;5.30;99.90
13123;DHT22;6627;50.920;12.050;2023-11-21T15:14:43;5.30;99.90
13123;DHT22;6627;50.920;12.050;2023-11-21T15:17:22;5.20;99.90
13123;DHT22;6627;50.920;12.050;2023-11-21T15:20:11;5.20;99.90
13123;DHT22;6627;50.920;12.050;2023-11-21T15:25:14;5.20;99.90
13123;DHT22;6627;50.920;12.050;2023-11-21T15:27:41;5.10;99.90
13123;DHT22;6627;50.920;12.050;2023-11-21T15:30:11;5.10;99.90
13123;DHT22;6627;50.920;12.050;2023-11-21T15:32:38;5.10;99.90
13123;DHT22;6627;50.920;12.050;2023-11-21T15:35:06;5.10;99.90
13123;DHT22;6627;50.920;12.050;2023-11-21T15:37:35;5.10;99.90
13123;DHT22;6627;50.920;12.050;2023-11-21T15:40:03;5.00;99.90
13123;DHT22;6627;50.920;12.050;2023-11-21T15:42:31;5.00;99.90
13123;DHT22;6627;50.920;12.050;2023-11-21T15:44:59;4.90;99.90
13123;DHT22;6627;50.920;12.050;2023-11-21T15:47:28;5.00;99.90
13123;DHT22;6627;50.920;12.050;2023-11-21T15:49:56;5.10;99.90
13123;DHT22;6627;50.920;12.050;2023-11-21T15:52:24;5.10;99.90
13123;DHT22;6627;50.920;12.050;2023-11-21T15:54:51;5.10;99.90
13123;DHT22;6627;50.920;12.050;2023-11-21T15:57:20;5.00;99.90
13123;DHT22;6627;50.920;12.050;2023-11-21T15:59:47;5.00;99.90
13123;DHT22;6627;50.920;12.050;2023-11-21T16:02:15;5.00;99.90
13123;DHT22;6627;50.920;12.050;2023-11-21T16:04:44;5.00;99.90
13123;DHT22;6627;50.920;12.050;2023-11-21T16:07:12;5.00;99.90
13123;DHT22;6627;50.920;12.050;2023-11-21T16:09:40;5.00;99.90
13123;DHT22;6627;50.920;12.050;2023-11-21T16:12:09;5.00;99.90
13123;DHT22;6627;50.920;12.050;2023-11-21T16:14:38;5.00;99.90
13123;DHT22;6627;50.920;12.050;2023-11-21T16:17:10;5.10;99.90
13123;DHT22;6627;50.920;12.050;2023-11-21T16:19:40;4.90;99.90